createdAt,value
2017-11-05T00:01:29.944Z,98980.14
2017-11-05T00:04:04.456Z,98981.34
2017-11-05T00:06:39.058Z,98978.52
2017-11-05T00:09:13.598Z,98975.70
2017-11-05T00:11:48.093Z,98984.02
2017-11-05T00:14:22.643Z,98983.22
2017-11-05T00:16:57.151Z,98978.67
2017-11-05T00:19:31.627Z,98985.63
2017-11-05T00:22:06.047Z,98993.27
2017-11-05T00:24:40.482Z,98980.00
2017-11-05T00:27:15.087Z,98982.14
2017-11-05T00:29:49.486Z,98969.43
2017-11-05T00:32:23.999Z,98973.58
2017-11-05T00:34:58.398Z,98963.55
2017-11-05T00:37:32.884Z,98962.86
2017-11-05T00:40:10.790Z,98974.13
2017-11-05T00:42:45.316Z,98972.23
2017-11-05T00:45:19.846Z,98970.11
2017-11-05T00:47:54.470Z,98962.36
2017-11-05T00:50:28.927Z,98954.01
2017-11-05T00:53:03.634Z,98957.77
2017-11-05T00:55:38.075Z,98955.38
2017-11-05T00:58:12.500Z,98961.24
2017-11-05T01:00:46.899Z,98962.17
2017-11-05T01:03:21.549Z,98958.61
2017-11-05T01:05:56.090Z,98941.87
2017-11-05T01:08:30.627Z,98944.69
2017-11-05T01:11:05.147Z,98928.72
2017-11-05T01:13:39.813Z,98921.12
2017-11-05T01:16:14.344Z,98919.37
2017-11-05T01:18:48.966Z,98912.42
2017-11-05T01:21:23.380Z,98910.55
2017-11-05T01:23:57.969Z,98905.72
2017-11-05T01:26:32.393Z,98913.61
2017-11-05T01:29:07.074Z,98919.91
2017-11-05T01:31:41.605Z,98926.85
2017-11-05T01:34:16.164Z,98930.75
2017-11-05T01:36:50.588Z,98925.11
2017-11-05T01:39:25.031Z,98848.23
2017-11-05T01:41:59.459Z,98914.31
2017-11-05T01:44:34.015Z,98918.73
2017-11-05T01:47:09.135Z,98915.88
2017-11-05T01:49:43.710Z,98915.23
2017-11-05T01:52:17.903Z,98918.95
2017-11-05T01:54:52.627Z,98915.80
2017-11-05T01:57:27.031Z,98912.58
2017-11-05T02:00:01.475Z,98899.97
2017-11-05T02:02:35.682Z,98902.39
2017-11-05T02:05:14.943Z,98897.03
2017-11-05T02:07:49.230Z,98886.99
2017-11-05T02:10:23.350Z,98884.70
2017-11-05T02:12:58.569Z,98874.41
2017-11-05T02:15:33.688Z,98883.09
2017-11-05T02:18:08.154Z,98886.17
2017-11-05T02:20:42.279Z,98884.57
2017-11-05T02:23:16.529Z,98870.92
2017-11-05T02:25:51.726Z,98871.05
2017-11-05T02:28:25.997Z,98833.51
2017-11-05T02:31:00.058Z,98873.06
2017-11-05T02:33:34.461Z,98857.03
2017-11-05T02:36:08.608Z,98894.09
2017-11-05T02:38:43.158Z,98884.07
2017-11-05T02:41:17.598Z,98876.56
2017-11-05T02:43:52.130Z,98877.78
2017-11-05T02:46:26.243Z,98870.14
2017-11-05T02:49:00.421Z,98867.33
2017-11-05T02:51:34.620Z,98859.56
2017-11-05T02:54:09.132Z,98855.68
2017-11-05T02:56:43.747Z,98860.11
2017-11-05T02:59:17.960Z,98863.31
2017-11-05T03:01:52.385Z,98858.34
2017-11-05T03:04:27.735Z,98844.59
2017-11-05T03:07:01.972Z,98849.26
2017-11-05T03:09:36.014Z,98850.89
2017-11-05T03:12:10.156Z,98837.21
2017-11-05T03:14:44.257Z,98844.33
2017-11-05T03:17:18.350Z,98836.17
2017-11-05T03:19:52.391Z,98840.42
2017-11-05T03:22:26.451Z,98840.59
2017-11-05T03:25:00.691Z,98837.63
2017-11-05T03:27:34.821Z,98828.66
2017-11-05T03:30:08.892Z,98829.19
2017-11-05T03:32:43.385Z,98817.83
2017-11-05T03:35:17.497Z,98834.30
2017-11-05T03:37:51.694Z,98829.48
2017-11-05T03:40:25.770Z,98821.19
2017-11-05T03:42:59.911Z,98827.19
2017-11-05T03:45:34.049Z,98832.67
2017-11-05T03:48:08.272Z,98826.93
2017-11-05T03:50:42.395Z,98829.50
2017-11-05T03:53:16.462Z,98822.91
2017-11-05T03:55:50.506Z,98817.30
2017-11-05T03:58:24.552Z,98804.75
2017-11-05T04:00:58.834Z,98796.05
2017-11-05T04:03:33.256Z,98794.45
2017-11-05T04:06:07.290Z,98782.17
2017-11-05T04:08:41.583Z,98784.58
2017-11-05T04:11:16.045Z,98796.59
2017-11-05T04:13:50.551Z,98775.50
2017-11-05T04:16:25.182Z,98777.34
2017-11-05T04:18:59.436Z,98782.58
2017-11-05T04:21:33.478Z,98784.45
2017-11-05T04:24:07.856Z,98772.69
2017-11-05T04:26:42.514Z,98770.83
2017-11-05T04:29:17.096Z,98765.75
2017-11-05T04:31:51.238Z,98739.95
2017-11-05T04:34:25.287Z,98767.34
2017-11-05T04:36:59.415Z,98769.88
2017-11-05T04:39:33.550Z,98768.67
2017-11-05T04:42:08.023Z,98764.91
2017-11-05T04:44:42.703Z,98762.06
2017-11-05T04:47:17.606Z,98761.01
2017-11-05T04:49:51.968Z,98755.45
2017-11-05T04:52:26.023Z,98707.48
2017-11-05T04:55:00.609Z,98763.97
2017-11-05T04:57:34.724Z,98773.07
2017-11-05T05:00:12.146Z,98639.12
2017-11-05T05:02:46.369Z,98768.00
2017-11-05T05:05:20.870Z,98765.33
2017-11-05T05:07:55.253Z,98769.62
2017-11-05T05:10:29.385Z,98765.42
2017-11-05T05:13:04.058Z,98757.92
2017-11-05T05:15:38.158Z,98733.10
2017-11-05T05:18:12.421Z,98740.42
2017-11-05T05:20:46.550Z,98747.22
2017-11-05T05:23:20.957Z,98749.09
2017-11-05T05:25:55.432Z,98749.46
2017-11-05T05:28:29.983Z,98754.12
2017-11-05T05:31:04.087Z,98754.41
2017-11-05T05:33:38.231Z,98751.07
2017-11-05T05:36:12.382Z,98747.04
2017-11-05T05:38:46.547Z,98747.33
2017-11-05T05:41:21.035Z,98743.02
2017-11-05T05:43:55.287Z,98737.69
2017-11-05T05:46:30.152Z,98739.66
2017-11-05T05:49:04.696Z,98738.08
2017-11-05T05:51:38.798Z,98744.11
2017-11-05T05:54:13.222Z,98753.86
2017-11-05T05:56:47.718Z,98755.44
2017-11-05T05:59:21.944Z,98746.75
2017-11-05T06:01:56.020Z,98766.21
2017-11-05T06:04:30.124Z,98767.16
2017-11-05T06:07:04.351Z,98770.91
2017-11-05T06:09:38.777Z,98737.53
2017-11-05T06:12:12.991Z,98760.27
2017-11-05T06:14:47.151Z,98757.43
2017-11-05T06:17:22.597Z,98751.39
2017-11-05T06:19:56.894Z,98758.51
2017-11-05T06:22:30.927Z,98747.11
2017-11-05T06:25:13.767Z,98728.77
2017-11-05T06:27:47.862Z,98733.09
2017-11-05T06:30:22.098Z,98740.83
2017-11-05T06:32:56.208Z,98743.76
2017-11-05T06:35:30.935Z,98752.28
2017-11-05T06:38:05.048Z,98747.33
2017-11-05T06:40:39.242Z,98751.33
2017-11-05T06:43:13.770Z,98752.83
2017-11-05T06:45:47.849Z,98748.48
2017-11-05T06:48:22.137Z,98760.53
2017-11-05T06:50:56.255Z,98757.23
2017-11-05T06:53:30.399Z,98754.81
2017-11-05T06:56:04.843Z,98758.00
2017-11-05T06:58:39.458Z,98758.81
2017-11-05T07:01:13.678Z,98756.00
2017-11-05T07:03:47.828Z,98753.30
2017-11-05T07:06:21.967Z,98748.39
2017-11-05T07:08:56.546Z,98749.98
2017-11-05T07:11:30.412Z,98751.80
2017-11-05T07:14:04.572Z,98745.41
2017-11-05T07:16:38.767Z,98738.59
2017-11-05T07:19:12.820Z,98744.02
2017-11-05T07:21:47.522Z,98734.28
2017-11-05T07:24:21.731Z,98729.17
2017-11-05T07:26:55.790Z,98732.89
2017-11-05T07:29:30.054Z,98734.08
2017-11-05T07:32:04.223Z,98732.30
2017-11-05T07:34:38.462Z,98735.51
2017-11-05T07:37:13.103Z,98736.73
2017-11-05T07:39:47.330Z,98731.88
2017-11-05T07:42:21.958Z,98722.43
2017-11-05T07:44:56.258Z,98725.94
2017-11-05T07:47:30.461Z,98730.66
2017-11-05T07:50:07.389Z,98735.34
2017-11-05T07:52:41.577Z,98724.76
2017-11-05T07:55:16.106Z,98711.45
2017-11-05T07:57:50.929Z,98703.38
2017-11-05T08:00:25.248Z,98710.60
2017-11-05T08:03:01.891Z,98708.55
2017-11-05T08:05:36.407Z,98706.47
2017-11-05T08:08:10.655Z,98697.70
2017-11-05T08:10:45.027Z,98699.14
2017-11-05T08:13:19.218Z,98694.73
2017-11-05T08:15:53.255Z,98693.07
2017-11-05T08:18:27.440Z,98690.00
2017-11-05T08:21:01.522Z,98692.19
2017-11-05T08:23:35.686Z,98687.33
2017-11-05T08:26:10.274Z,98684.84
2017-11-05T08:28:44.984Z,98685.91
2017-11-05T08:31:19.536Z,98679.38
2017-11-05T08:33:53.962Z,98666.21
2017-11-05T08:36:28.470Z,98664.39
2017-11-05T08:39:02.883Z,98663.45
2017-11-05T08:41:36.950Z,98665.34
2017-11-05T08:44:10.991Z,98666.50
2017-11-05T08:46:45.407Z,98671.67
2017-11-05T08:49:19.986Z,98665.11
2017-11-05T08:51:54.538Z,98650.73
2017-11-05T08:54:29.004Z,98648.34
2017-11-05T08:57:03.451Z,98632.22
2017-11-05T08:59:37.834Z,98648.88
2017-11-05T09:02:12.107Z,98661.13
2017-11-05T09:04:46.716Z,98594.73
2017-11-05T09:07:21.083Z,98663.37
2017-11-05T09:09:55.682Z,98659.05
2017-11-05T09:12:30.355Z,98656.70
2017-11-05T09:15:11.542Z,98660.86
2017-11-05T09:17:46.108Z,98653.48
2017-11-05T09:20:21.219Z,98656.94
2017-11-05T09:22:55.883Z,98643.72
2017-11-05T09:25:29.967Z,98648.84
2017-11-05T09:28:04.586Z,98638.20
2017-11-05T09:30:39.084Z,98630.09
2017-11-05T09:33:13.239Z,98638.06
2017-11-05T09:35:47.628Z,98640.31
2017-11-05T09:38:22.255Z,98639.55
2017-11-05T09:40:56.669Z,98639.28
2017-11-05T09:43:31.277Z,98629.75
2017-11-05T09:46:05.870Z,98621.48
2017-11-05T09:48:40.415Z,98625.84
2017-11-05T09:51:14.927Z,98618.10
2017-11-05T09:53:49.594Z,98601.28
2017-11-05T09:56:24.014Z,98596.98
2017-11-05T09:58:58.599Z,98603.50
2017-11-05T10:01:33.079Z,98596.98
2017-11-05T10:04:07.699Z,98590.58
2017-11-05T10:06:42.117Z,98590.73
2017-11-05T10:09:16.775Z,98603.95
2017-11-05T10:11:51.256Z,98594.52
2017-11-05T10:14:25.807Z,98597.85
2017-11-05T10:17:00.230Z,98586.27
2017-11-05T10:19:34.875Z,98575.10
2017-11-05T10:22:09.282Z,98572.60
2017-11-05T10:24:43.877Z,98577.13
2017-11-05T10:27:18.286Z,98544.36
2017-11-05T10:29:52.843Z,98557.31
2017-11-05T10:32:27.316Z,98552.95
2017-11-05T10:35:01.843Z,98563.52
2017-11-05T10:37:36.419Z,98559.55
2017-11-05T10:40:11.587Z,98568.17
2017-11-05T10:42:46.076Z,98556.50
2017-11-05T10:45:20.522Z,98543.52
2017-11-05T10:47:54.942Z,98539.13
2017-11-05T10:50:29.942Z,98533.92
2017-11-05T10:53:04.464Z,98519.01
2017-11-05T10:55:38.907Z,98523.97
2017-11-05T10:58:13.532Z,98515.91
2017-11-05T11:00:47.965Z,98521.22
2017-11-05T11:03:22.490Z,98507.78
2017-11-05T11:05:56.986Z,98506.41
2017-11-05T11:08:31.542Z,98505.13
2017-11-05T11:11:05.984Z,120514.73
2017-11-05T11:13:40.523Z,120514.73
2017-11-05T11:16:14.963Z,120514.73
2017-11-05T11:18:49.534Z,120514.73
2017-11-05T11:21:23.959Z,120514.73
2017-11-05T11:23:58.385Z,120514.73
2017-11-05T11:26:32.863Z,120514.73
2017-11-05T11:29:07.299Z,120514.73
2017-11-05T11:31:41.746Z,120514.73
2017-11-05T11:34:16.274Z,120514.73
2017-11-05T11:36:50.797Z,120514.73
2017-11-05T11:39:25.452Z,120514.73
2017-11-05T11:41:59.941Z,120514.73
2017-11-05T11:44:34.508Z,120514.73
2017-11-05T11:47:09.408Z,120514.73
2017-11-05T11:49:43.950Z,120514.73
2017-11-05T11:52:18.471Z,120514.73
2017-11-05T11:54:53.002Z,120514.73
2017-11-05T11:57:27.473Z,120514.73
2017-11-05T12:00:02.098Z,120514.73
2017-11-05T12:02:36.198Z,120514.73
2017-11-05T12:05:16.094Z,120514.73
2017-11-05T12:07:50.720Z,120514.73
2017-11-05T12:10:24.984Z,120514.73
2017-11-05T12:12:59.413Z,120514.73
2017-11-05T12:15:33.863Z,120514.73
2017-11-05T12:18:08.463Z,120514.73
2017-11-05T12:20:42.927Z,120514.73
2017-11-05T12:23:17.338Z,120514.73
2017-11-05T12:25:51.946Z,120514.73
2017-11-05T12:28:26.564Z,120514.73
2017-11-05T12:31:01.052Z,120514.73
2017-11-05T12:33:35.485Z,120514.73
2017-11-05T12:36:09.652Z,120514.73
2017-11-05T12:38:44.290Z,120514.73
2017-11-05T12:41:18.780Z,120514.73
2017-11-05T12:43:53.442Z,120514.73
2017-11-05T12:46:28.248Z,120514.73
2017-11-05T12:49:02.792Z,120514.73
2017-11-05T12:51:37.267Z,120514.73
2017-11-05T12:54:11.839Z,120514.73
2017-11-05T12:56:46.289Z,120514.73
2017-11-05T12:59:20.836Z,120514.73
2017-11-05T13:01:55.668Z,120514.73
2017-11-05T13:04:30.208Z,120514.73
2017-11-05T13:07:04.344Z,120514.73
2017-11-05T13:09:39.008Z,120514.73
2017-11-05T13:12:13.447Z,120514.73
2017-11-05T13:14:47.896Z,120514.73
2017-11-05T13:17:22.347Z,120514.73
2017-11-05T13:19:56.811Z,120514.73
2017-11-05T13:22:31.338Z,120514.73
2017-11-05T13:25:14.718Z,120514.73
2017-11-05T13:27:49.114Z,120514.73
2017-11-05T13:30:23.638Z,120514.73
2017-11-05T13:32:58.072Z,120514.73
2017-11-05T13:35:32.474Z,120514.73
2017-11-05T13:38:06.916Z,120514.73
2017-11-05T13:40:41.714Z,120514.73
2017-11-05T13:43:16.584Z,120514.73
2017-11-05T13:45:51.068Z,120514.73
2017-11-05T13:48:25.814Z,120514.73
2017-11-05T13:51:00.284Z,120514.73
2017-11-05T13:53:34.827Z,120514.73
2017-11-05T13:56:09.471Z,120514.73
2017-11-05T13:58:44.096Z,120514.73
2017-11-05T14:01:18.175Z,120514.73
2017-11-05T14:03:52.721Z,120514.73
2017-11-05T14:06:27.138Z,120514.73
2017-11-05T14:09:01.710Z,120514.73
2017-11-05T14:11:36.240Z,120514.73
2017-11-05T14:14:10.865Z,120514.73
2017-11-05T14:16:45.110Z,120514.73
2017-11-05T14:19:19.642Z,120514.73
2017-11-05T14:21:53.787Z,120514.73
2017-11-05T14:24:28.338Z,120514.73
2017-11-05T14:27:02.771Z,120514.73
2017-11-05T14:29:37.372Z,120514.73
2017-11-05T14:32:11.775Z,120514.73
2017-11-05T14:34:46.523Z,120514.73
2017-11-05T14:37:20.947Z,120514.73
2017-11-05T14:39:55.443Z,120514.73
2017-11-05T14:42:29.951Z,120514.73
2017-11-05T14:47:45.036Z,120514.73
2017-11-05T14:50:18.914Z,120514.73
2017-11-05T14:52:53.458Z,120514.73
2017-11-05T14:55:27.919Z,120514.73
2017-11-05T14:58:02.186Z,120514.73
2017-11-05T15:00:36.389Z,120514.73
2017-11-05T15:03:10.873Z,120514.73
2017-11-05T15:05:45.194Z,120514.73
2017-11-05T15:08:19.790Z,120514.73
2017-11-05T15:10:54.230Z,120514.73
2017-11-05T15:13:28.833Z,120514.73
2017-11-05T15:16:03.242Z,120514.73
2017-11-05T15:18:38.623Z,120514.73
2017-11-05T15:21:13.223Z,120514.73
2017-11-05T15:23:47.814Z,120514.73
2017-11-05T15:26:22.362Z,120514.73
2017-11-05T15:28:57.023Z,120514.73
2017-11-05T15:31:31.438Z,120514.73
2017-11-05T15:34:05.700Z,120514.73
2017-11-05T15:36:40.128Z,120514.73
2017-11-05T15:39:14.361Z,120514.73
2017-11-05T15:41:48.877Z,120514.73
2017-11-05T15:44:23.399Z,120514.73
2017-11-05T15:46:57.876Z,120514.73
2017-11-05T15:49:32.428Z,120514.73
2017-11-05T15:52:06.666Z,120514.73
2017-11-05T15:54:41.080Z,120514.73
2017-11-05T15:57:15.636Z,120514.73
2017-11-05T15:59:50.271Z,120514.73
2017-11-05T16:02:24.794Z,120514.73
2017-11-05T16:04:59.380Z,120514.73
2017-11-05T16:07:33.845Z,120514.73
2017-11-05T16:10:13.471Z,120514.73
2017-11-05T16:12:48.360Z,120514.73
2017-11-05T16:15:22.894Z,120514.73
2017-11-05T16:17:57.523Z,120514.73
2017-11-05T16:20:31.943Z,120514.73
2017-11-05T16:23:06.406Z,120514.73
2017-11-05T16:25:41.091Z,120514.73
2017-11-05T16:28:15.667Z,120514.73
2017-11-05T16:30:50.315Z,120514.73
2017-11-05T16:33:24.782Z,120514.73
2017-11-05T16:35:59.223Z,120514.73
2017-11-05T16:38:34.147Z,120514.73
2017-11-05T16:41:09.274Z,120514.73
2017-11-05T16:43:43.824Z,120514.73
2017-11-05T16:46:18.265Z,120514.73
2017-11-05T16:48:52.891Z,120514.73
2017-11-05T16:51:28.914Z,120514.73
2017-11-05T16:54:03.521Z,120514.73
2017-11-05T16:56:38.021Z,120514.73
2017-11-05T16:59:12.523Z,120514.73
2017-11-05T17:01:47.015Z,120514.73
2017-11-05T17:04:21.716Z,120514.73
2017-11-05T17:06:55.837Z,120514.73
2017-11-05T17:09:30.408Z,120514.73
2017-11-05T17:12:04.823Z,120514.73
2017-11-05T17:14:39.386Z,120514.73
2017-11-05T17:17:14.324Z,120514.73
2017-11-05T17:19:48.876Z,120514.73
2017-11-05T17:22:23.365Z,120514.73
2017-11-05T17:24:57.948Z,120514.73
2017-11-05T17:27:32.411Z,120514.73
2017-11-05T17:30:13.902Z,120514.73
2017-11-05T17:32:48.529Z,120514.73
2017-11-05T17:35:22.373Z,120514.73
2017-11-05T17:37:57.088Z,120514.73
2017-11-05T17:40:31.534Z,120514.73
2017-11-05T17:43:06.178Z,120514.73
2017-11-05T17:45:40.631Z,120514.73
2017-11-05T17:48:15.262Z,120514.73
2017-11-05T17:50:49.747Z,120514.73
2017-11-05T17:53:24.179Z,120514.73
2017-11-05T17:55:58.730Z,120514.73
2017-11-05T17:58:33.324Z,120514.73
2017-11-05T18:01:07.796Z,120514.73
2017-11-05T18:03:42.454Z,120514.73
2017-11-05T18:06:16.908Z,120514.73
2017-11-05T18:08:51.452Z,98405.48
2017-11-05T18:11:25.947Z,98414.04
2017-11-05T18:14:00.523Z,98413.91
2017-11-05T18:16:35.006Z,98416.59
2017-11-05T18:19:09.561Z,98419.30
2017-11-05T18:21:44.030Z,98429.22
2017-11-05T18:24:18.628Z,98422.79
2017-11-05T18:26:53.022Z,98433.34
2017-11-05T18:29:27.578Z,98451.13
2017-11-05T18:32:02.070Z,98450.48
2017-11-05T18:34:36.691Z,98467.31
2017-11-05T18:37:11.084Z,98485.64
2017-11-05T18:39:45.476Z,98500.89
2017-11-05T18:42:19.951Z,98520.34
2017-11-05T18:44:54.555Z,98518.47
2017-11-05T18:47:29.158Z,98530.28
2017-11-05T18:52:44.486Z,98544.26
2017-11-05T18:55:18.878Z,98547.36
2017-11-05T18:57:53.481Z,98550.08
2017-11-05T19:00:27.622Z,98567.47
2017-11-05T19:03:02.027Z,98574.19
2017-11-05T19:05:37.021Z,98569.86
2017-11-05T19:08:11.555Z,98562.80
2017-11-05T19:10:45.963Z,98561.30
2017-11-05T19:13:20.547Z,98566.51
2017-11-05T19:15:55.298Z,98568.52
2017-11-05T19:18:29.750Z,98567.06
2017-11-05T19:21:04.226Z,98581.94
2017-11-05T19:23:38.699Z,98584.05
2017-11-05T19:26:13.085Z,98591.45
2017-11-05T19:28:47.643Z,98533.16
2017-11-05T19:31:22.038Z,98589.99
2017-11-05T19:33:56.717Z,98586.73
2017-11-05T19:36:32.032Z,98579.92
2017-11-05T19:39:06.603Z,98580.77
2017-11-05T19:41:40.996Z,98600.92
2017-11-05T19:44:15.503Z,98596.21
2017-11-05T19:46:49.965Z,98611.23
2017-11-05T19:49:24.537Z,98605.80
2017-11-05T19:51:58.910Z,98601.80
2017-11-05T19:54:33.223Z,98610.61
2017-11-05T19:57:07.725Z,98624.75
2017-11-05T19:59:45.321Z,98618.19
2017-11-05T20:02:19.739Z,98624.20
2017-11-05T20:04:54.255Z,98639.66
2017-11-05T20:07:28.646Z,98631.16
2017-11-05T20:10:10.327Z,98634.03
2017-11-05T20:12:44.862Z,98636.80
2017-11-05T20:15:19.286Z,98647.95
2017-11-05T20:17:54.067Z,98642.39
2017-11-05T20:20:28.531Z,98651.25
2017-11-05T20:23:03.038Z,98650.10
2017-11-05T20:25:37.474Z,98650.31
2017-11-05T20:28:12.154Z,98656.81
2017-11-05T20:30:46.570Z,98658.06
2017-11-05T20:33:21.990Z,98672.17
2017-11-05T20:35:56.587Z,98662.24
2017-11-05T20:38:31.181Z,98669.46
2017-11-05T20:41:05.591Z,98678.14
2017-11-05T20:43:40.214Z,98681.78
2017-11-05T20:46:14.711Z,98681.17
2017-11-05T20:48:49.551Z,98670.56
2017-11-05T20:51:24.059Z,98684.41
2017-11-05T20:53:58.587Z,98692.57
2017-11-05T20:56:33.067Z,98706.41
2017-11-05T20:59:07.596Z,98707.95
2017-11-05T21:01:42.110Z,98711.02
2017-11-05T21:04:16.519Z,98722.02
2017-11-05T21:06:51.619Z,98718.44
2017-11-05T21:09:26.406Z,98720.53
2017-11-05T21:12:00.867Z,98715.70
2017-11-05T21:14:35.470Z,98714.10
2017-11-05T21:17:09.853Z,98717.00
2017-11-05T21:19:45.933Z,98726.11
2017-11-05T21:22:20.457Z,98728.16
2017-11-05T21:24:55.082Z,98727.95
2017-11-05T21:27:29.579Z,98735.69
2017-11-05T21:30:10.105Z,98742.38
2017-11-05T21:32:44.287Z,98725.56
2017-11-05T21:35:18.687Z,98769.09
2017-11-05T21:37:53.291Z,98733.20
2017-11-05T21:40:30.557Z,98770.78
2017-11-05T21:43:05.613Z,98767.56
2017-11-05T21:45:40.067Z,98760.26
2017-11-05T21:48:14.586Z,98756.68
2017-11-05T21:50:49.158Z,98763.27
2017-11-05T21:53:23.746Z,98769.41
2017-11-05T21:56:01.297Z,98771.71
2017-11-05T21:58:35.770Z,98780.17
2017-11-05T22:01:10.159Z,98770.70
2017-11-05T22:03:44.830Z,98775.49
2017-11-05T22:06:19.235Z,98779.15
2017-11-05T22:08:53.827Z,98781.77
2017-11-05T22:11:28.423Z,98766.69
2017-11-05T22:14:02.925Z,98782.48
2017-11-05T22:16:37.372Z,98782.48
2017-11-05T22:19:11.916Z,98781.34
2017-11-05T22:21:46.317Z,98784.71
2017-11-05T22:24:20.835Z,98786.93
2017-11-05T22:26:55.287Z,98793.22
2017-11-05T22:29:29.883Z,98796.53
2017-11-05T22:32:04.329Z,98800.30
2017-11-05T22:34:38.910Z,98806.53
2017-11-05T22:37:13.598Z,98791.06
2017-11-05T22:39:48.251Z,98805.95
2017-11-05T22:42:22.789Z,98805.67
2017-11-05T22:44:57.399Z,98809.80
2017-11-05T22:47:31.935Z,98805.86
2017-11-05T22:50:08.567Z,98806.84
2017-11-05T22:52:43.426Z,98803.25
2017-11-05T22:55:17.882Z,98805.27
2017-11-05T22:57:52.534Z,98821.77
2017-11-05T23:00:27.010Z,98822.80
2017-11-05T23:03:01.658Z,98823.95
2017-11-05T23:05:36.054Z,98826.89
2017-11-05T23:08:10.455Z,98825.15
2017-11-05T23:10:45.523Z,98824.97
2017-11-05T23:13:20.090Z,98831.21
2017-11-05T23:15:54.578Z,98831.39
2017-11-05T23:18:29.027Z,98826.41
2017-11-05T23:21:03.556Z,98822.56
2017-11-05T23:23:38.060Z,98831.52
2017-11-05T23:26:12.474Z,98826.02
2017-11-05T23:28:47.058Z,98826.51
2017-11-05T23:31:21.679Z,98820.83
2017-11-05T23:33:56.063Z,98804.67
2017-11-05T23:36:30.490Z,98825.64
2017-11-05T23:39:04.511Z,98836.98
2017-11-05T23:41:38.887Z,98827.48
2017-11-05T23:44:13.561Z,98837.70
2017-11-05T23:46:47.978Z,98834.34
2017-11-05T23:49:22.569Z,98840.67
2017-11-05T23:51:57.083Z,98835.61
2017-11-05T23:54:31.562Z,98849.00
2017-11-05T23:57:06.121Z,98842.87
2017-11-05T23:59:40.779Z,98840.24
